Time;durP1;ratioP1;P1;durP2;ratioP2;P2;SDS_P1;SDS_P2;PMS_P1;PMS_P2;Temp;Humidity;BMP_temperature;BMP_pressure;BME280_temperature;BME280_humidity;BME280_pressure;Samples;Min_cycle;Max_cycle;Signal;HPM_P1;HPM_P2
2023/10/04 00:01:43;;;;;;;2.08;1.40;;;17.00;73.00;;;;;;5013787;28;20112;-77
2023/10/04 00:04:10;;;;;;;2.60;1.30;;;16.90;73.00;;;;;;4999509;28;20068;-76
2023/10/04 00:06:36;;;;;;;3.38;1.73;;;16.90;73.00;;;;;;5016899;28;20040;-76
2023/10/04 00:09:05;;;;;;;2.15;1.50;;;16.90;73.00;;;;;;4999660;28;20482;-76
2023/10/04 00:11:31;;;;;;;1.95;1.25;;;16.90;73.00;;;;;;4999652;28;20042;-77
2023/10/04 00:13:57;;;;;;;2.13;1.67;;;16.90;73.00;;;;;;5012438;28;20466;-77
2023/10/04 00:16:23;;;;;;;2.88;1.65;;;16.90;73.00;;;;;;5012410;28;20030;-77
2023/10/04 00:18:49;;;;;;;2.40;1.58;;;16.90;73.00;;;;;;4996885;28;20375;-76
2023/10/04 00:21:15;;;;;;;1.80;1.30;;;16.90;73.00;;;;;;4996909;28;20049;-77
2023/10/04 00:23:41;;;;;;;1.67;1.50;;;16.90;73.00;;;;;;4979914;28;20038;-76
2023/10/04 00:26:08;;;;;;;2.17;1.50;;;16.80;73.00;;;;;;5012261;28;20035;-77
2023/10/04 00:28:34;;;;;;;3.05;1.95;;;16.90;73.10;;;;;;4996046;28;20037;-76
2023/10/04 00:31:00;;;;;;;2.38;1.70;;;16.80;73.00;;;;;;5012307;28;20495;-76
2023/10/04 00:33:26;;;;;;;2.03;1.60;;;16.90;73.10;;;;;;4995852;28;20049;-76
2023/10/04 00:35:52;;;;;;;1.98;1.50;;;16.80;73.00;;;;;;4995749;28;20034;-76
2023/10/04 00:38:19;;;;;;;2.25;1.50;;;16.80;73.10;;;;;;4996730;28;20037;-77
2023/10/04 00:40:47;;;;;;;2.20;1.40;;;16.80;73.10;;;;;;4980103;28;20121;-76
2023/10/04 00:43:15;;;;;;;1.52;1.38;;;16.80;73.10;;;;;;5011954;28;20045;-76
2023/10/04 00:45:49;;;;;;;3.00;1.60;;;16.80;73.10;;;;;;5011841;28;20030;-76
2023/10/04 00:48:23;;;;;;;4.90;1.67;;;16.70;73.10;;;;;;4995921;28;20033;-77
2023/10/04 00:50:50;;;;;;;2.28;1.30;;;16.70;73.10;;;;;;4996851;28;20157;-76
2023/10/04 00:53:22;;;;;;;1.40;1.27;;;16.80;73.10;;;;;;5011932;28;20066;-77
2023/10/04 00:55:49;;;;;;;1.70;1.30;;;16.80;73.20;;;;;;4995805;28;20117;-76
2023/10/04 00:58:20;;;;;;;3.03;1.70;;;16.70;73.10;;;;;;4995410;28;20042;-76
2023/10/04 01:00:48;;;;;;;2.40;1.45;;;16.70;73.10;;;;;;4979357;28;20026;-77
2023/10/04 01:03:37;;;;;;;3.35;1.85;;;16.70;73.20;;;;;;4996444;28;20038;-76
2023/10/04 01:06:02;;;;;;;3.05;1.60;;;16.70;73.20;;;;;;4993975;28;20057;-76
2023/10/04 01:08:28;;;;;;;2.72;1.50;;;16.70;73.10;;;;;;5011556;28;20062;-77
2023/10/04 01:10:55;;;;;;;2.20;1.60;;;16.70;73.80;;;;;;4994965;28;20026;-77
2023/10/04 01:13:22;;;;;;;2.00;1.50;;;16.70;73.20;;;;;;4993556;28;20157;-77
2023/10/04 01:15:55;;;;;;;2.05;1.48;;;16.70;73.20;;;;;;4996298;28;20041;-77
2023/10/04 01:18:22;;;;;;;1.60;1.33;;;16.70;73.20;;;;;;4995723;28;20128;-77
2023/10/04 01:20:49;;;;;;;2.33;1.40;;;16.70;73.20;;;;;;4994886;28;20030;-76
2023/10/04 01:23:15;;;;;;;2.30;1.70;;;16.70;73.20;;;;;;4995891;28;20034;-77
2023/10/04 01:25:44;;;;;;;2.20;1.60;;;16.70;73.20;;;;;;4995392;28;20110;-76
2023/10/04 01:28:13;;;;;;;3.05;1.95;;;16.70;73.20;;;;;;4994642;28;20476;-76
2023/10/04 01:30:51;;;;;;;3.22;1.60;;;16.70;73.20;;;;;;4995793;28;20033;-76
2023/10/04 01:33:20;;;;;;;2.67;1.38;;;16.70;73.20;;;;;;5010822;28;20046;-77
2023/10/04 01:35:56;;;;;;;2.88;1.85;;;16.70;73.20;;;;;;4995664;28;20071;-76
2023/10/04 01:38:31;;;;;;;2.47;1.35;;;16.60;73.20;;;;;;5011840;28;20034;-77
2023/10/04 01:40:58;;;;;;;1.70;1.33;;;16.60;73.20;;;;;;4995857;28;20034;-76
2023/10/04 01:43:25;;;;;;;2.83;1.60;;;16.60;73.20;;;;;;4995039;28;20084;-76
2023/10/04 01:45:57;;;;;;;3.25;1.60;;;16.60;73.20;;;;;;5010485;28;20035;-76
2023/10/04 01:48:30;;;;;;;2.20;1.50;;;16.60;73.30;;;;;;5010815;28;20065;-77
2023/10/04 01:50:57;;;;;;;1.98;1.50;;;16.60;73.20;;;;;;5010927;28;20412;-76
2023/10/04 01:53:24;;;;;;;2.88;1.60;;;16.60;73.20;;;;;;4994254;28;20042;-77
2023/10/04 01:55:50;;;;;;;1.90;1.23;;;16.60;73.30;;;;;;4994112;28;20124;-76
2023/10/04 01:58:21;;;;;;;1.73;1.40;;;16.60;73.30;;;;;;5010858;28;20054;-76
2023/10/04 02:00:47;;;;;;;2.03;1.42;;;16.50;73.30;;;;;;4995997;28;20034;-76
2023/10/04 02:03:14;;;;;;;2.40;1.40;;;16.60;73.30;;;;;;4994408;28;20049;-76
2023/10/04 02:05:41;;;;;;;2.30;1.33;;;16.50;73.20;;;;;;4994068;28;20046;-76
2023/10/04 02:08:10;;;;;;;2.97;1.50;;;16.50;73.30;;;;;;4978591;28;20030;-76
2023/10/04 02:10:44;;;;;;;3.42;1.80;;;16.50;73.30;;;;;;4978059;28;20035;-76
2023/10/04 02:13:17;;;;;;;3.40;1.75;;;16.60;73.30;;;;;;5010452;28;20511;-77
2023/10/04 02:15:52;;;;;;;2.08;1.38;;;16.60;73.30;;;;;;4979397;28;20031;-78
2023/10/04 02:18:21;;;;;;;2.72;1.80;;;16.50;73.30;;;;;;4993582;28;20053;-76
2023/10/04 02:20:53;;;;;;;2.10;1.40;;;16.50;73.90;;;;;;5010183;28;20073;-77
2023/10/04 02:23:19;;;;;;;2.58;1.50;;;16.50;73.30;;;;;;4978455;28;20042;-76
2023/10/04 02:25:48;;;;;;;2.33;1.40;;;16.50;73.30;;;;;;5009988;28;20482;-76
2023/10/04 02:28:23;;;;;;;2.13;1.50;;;16.50;73.30;;;;;;4993827;28;20037;-76
2023/10/04 02:30:49;;;;;;;2.17;1.50;;;16.50;73.30;;;;;;4994432;28;20039;-76
2023/10/04 02:33:16;;;;;;;2.70;1.30;;;16.50;73.30;;;;;;5010678;28;20093;-76
2023/10/04 02:35:44;;;;;;;2.20;1.58;;;16.50;73.30;;;;;;4994324;28;20058;-76
2023/10/04 02:38:26;;;;;;;3.00;1.50;;;16.50;73.40;;;;;;4993815;28;20026;-76
2023/10/04 02:40:53;;;;;;;1.73;1.40;;;16.50;73.40;;;;;;4979596;28;20041;-76
2023/10/04 02:43:21;;;;;;;1.85;1.45;;;16.50;73.30;;;;;;4993486;28;20093;-78
2023/10/04 02:45:50;;;;;;;2.33;1.50;;;16.50;73.40;;;;;;4993042;28;20117;-76
2023/10/04 02:48:16;;;;;;;2.53;1.45;;;16.50;73.40;;;;;;4993758;28;20542;-77
2023/10/04 02:50:43;;;;;;;2.92;1.63;;;16.50;73.40;;;;;;5009919;28;20035;-76
2023/10/04 02:53:16;;;;;;;2.17;1.50;;;16.50;73.40;;;;;;4993584;28;20058;-76
2023/10/04 02:55:43;;;;;;;2.78;1.40;;;16.40;73.40;;;;;;5009461;28;20030;-77
2023/10/04 02:58:12;;;;;;;2.72;1.80;;;16.50;73.40;;;;;;4977197;28;20031;-76
2023/10/04 03:00:43;;;;;;;2.05;1.65;;;16.40;73.40;;;;;;5009693;28;20030;-76
2023/10/04 03:03:09;;;;;;;2.50;1.55;;;16.50;73.50;;;;;;4977339;28;20042;-77
2023/10/04 03:05:35;;;;;;;3.00;1.58;;;16.40;73.40;;;;;;4993070;28;20058;-77
2023/10/04 03:08:06;;;;;;;2.38;1.63;;;16.40;73.40;;;;;;4977331;28;20416;-76
2023/10/04 03:10:34;;;;;;;2.95;1.50;;;16.40;73.40;;;;;;4993128;28;20039;-77
2023/10/04 03:13:03;;;;;;;2.65;1.50;;;16.50;73.50;;;;;;5009212;28;20089;-76
2023/10/04 03:15:31;;;;;;;2.70;1.70;;;16.40;73.40;;;;;;5009463;28;20467;-76
2023/10/04 03:17:59;;;;;;;2.88;1.50;;;16.40;73.40;;;;;;4994439;28;20042;-76
2023/10/04 03:20:29;;;;;;;2.33;1.63;;;16.40;73.40;;;;;;5009916;28;20034;-76
2023/10/04 03:23:00;;;;;;;2.53;1.60;;;16.40;73.40;;;;;;5009093;28;20173;-77
2023/10/04 03:25:26;;;;;;;1.75;1.40;;;16.40;73.40;;;;;;4993533;28;20486;-78
2023/10/04 03:27:54;;;;;;;3.08;1.80;;;16.40;73.40;;;;;;4994585;28;20074;-76
2023/10/04 03:30:21;;;;;;;3.38;1.75;;;16.50;73.50;;;;;;4977312;28;20471;-76
2023/10/04 03:32:56;;;;;;;1.65;1.50;;;16.40;73.40;;;;;;4976693;28;20066;-77
2023/10/04 03:35:26;;;;;;;2.33;1.55;;;16.40;73.40;;;;;;5009421;28;20507;-76
2023/10/04 03:37:58;;;;;;;1.95;1.42;;;16.40;73.40;;;;;;4981082;28;20040;-76
2023/10/04 03:40:38;;;;;;;2.55;1.55;;;16.40;73.40;;;;;;4997288;28;20042;-77
2023/10/04 03:43:08;;;;;;;2.58;1.60;;;16.40;73.50;;;;;;4997678;28;20480;-76
2023/10/04 03:45:40;;;;;;;3.45;1.65;;;16.40;73.40;;;;;;4996928;28;20471;-77
2023/10/04 03:48:19;;;;;;;1.90;1.33;;;16.40;73.40;;;;;;4981657;28;20347;-76
2023/10/04 03:50:54;;;;;;;1.90;1.30;;;16.40;73.40;;;;;;4998553;28;20464;-76
2023/10/04 03:53:22;;;;;;;2.65;1.60;;;16.40;73.40;;;;;;4980228;28;20034;-77
2023/10/04 03:55:50;;;;;;;2.40;1.60;;;16.30;73.40;;;;;;5013198;28;20045;-77
2023/10/04 03:58:19;;;;;;;3.63;1.58;;;16.40;73.50;;;;;;5012506;28;20121;-76
2023/10/04 04:00:45;;;;;;;1.90;1.38;;;16.40;73.50;;;;;;4996457;28;20037;-77
2023/10/04 04:03:12;;;;;;;2.15;1.20;;;16.30;73.50;;;;;;5012721;28;20038;-77
2023/10/04 04:05:44;;;;;;;3.05;1.70;;;16.30;73.50;;;;;;5012667;28;20038;-76
2023/10/04 04:08:13;;;;;;;3.42;1.50;;;16.30;73.50;;;;;;5013425;28;20022;-77
2023/10/04 04:10:40;;;;;;;2.38;1.70;;;16.40;73.50;;;;;;4996325;28;20475;-77
2023/10/04 04:13:06;;;;;;;1.90;1.55;;;16.30;73.50;;;;;;4995911;28;20514;-76
2023/10/04 04:15:35;;;;;;;2.80;1.67;;;16.30;73.50;;;;;;4996171;28;20030;-77
2023/10/04 04:18:06;;;;;;;2.60;1.50;;;16.30;73.50;;;;;;4981413;28;20617;-78
2023/10/04 04:20:35;;;;;;;2.58;1.60;;;16.30;73.50;;;;;;4980520;28;20523;-77
2023/10/04 04:23:05;;;;;;;2.05;1.50;;;16.30;73.50;;;;;;4980039;28;20391;-76
2023/10/04 04:25:32;;;;;;;2.28;1.35;;;16.30;73.50;;;;;;4995946;28;20061;-76
2023/10/04 04:27:58;;;;;;;2.13;1.40;;;16.30;73.50;;;;;;4995934;28;20042;-78
2023/10/04 04:30:31;;;;;;;3.03;1.52;;;16.30;73.50;;;;;;5012277;28;20035;-77
2023/10/04 04:32:57;;;;;;;1.98;1.27;;;16.20;73.40;;;;;;4980100;28;20038;-77
2023/10/04 04:38:17;;;;;;;2.45;1.50;;;16.30;73.50;;;;;;5011970;28;20049;-77
2023/10/04 04:40:46;;;;;;;3.20;1.70;;;16.20;73.50;;;;;;4981867;28;20085;-79
2023/10/04 04:45:56;;;;;;;2.22;1.45;;;16.20;73.50;;;;;;5012099;28;20066;-76
2023/10/04 04:48:35;;;;;;;2.00;1.40;;;16.20;73.50;;;;;;4995567;28;20023;-75
2023/10/04 04:51:03;;;;;;;1.90;1.55;;;16.20;73.50;;;;;;4995758;28;20085;-76
2023/10/04 04:53:32;;;;;;;1.83;1.55;;;16.20;73.50;;;;;;4996085;28;20117;-77
2023/10/04 04:55:58;;;;;;;2.42;1.63;;;16.10;73.40;;;;;;4980234;28;20491;-76
2023/10/04 04:58:25;;;;;;;2.08;1.52;;;16.20;73.50;;;;;;4995335;28;20031;-76
2023/10/04 05:00:56;;;;;;;1.50;1.30;;;16.20;73.50;;;;;;4979143;28;20041;-76
2023/10/04 05:03:26;;;;;;;2.83;1.85;;;16.20;73.50;;;;;;4995089;28;20030;-76
2023/10/04 05:05:55;;;;;;;2.25;1.40;;;16.20;73.60;;;;;;5010940;28;20034;-76
2023/10/04 05:08:22;;;;;;;3.15;1.60;;;16.10;73.50;;;;;;4994612;28;20034;-76
2023/10/04 05:10:51;;;;;;;2.45;1.50;;;16.10;73.50;;;;;;5010960;28;20038;-76
2023/10/04 05:13:18;;;;;;;2.40;1.65;;;16.10;73.50;;;;;;4994430;28;20078;-76
2023/10/04 05:15:49;;;;;;;3.25;1.75;;;16.10;73.50;;;;;;5010835;28;20097;-77
2023/10/04 05:18:16;;;;;;;3.03;1.45;;;16.10;73.60;;;;;;4978482;28;20030;-83
2023/10/04 05:20:56;;;;;;;2.08;1.50;;;16.10;73.50;;;;;;4994551;28;20416;-77
2023/10/04 05:23:23;;;;;;;4.50;1.85;;;16.10;73.60;;;;;;5011448;28;20038;-76
2023/10/04 05:25:52;;;;;;;1.88;1.50;;;16.10;73.60;;;;;;4994730;28;20058;-76
2023/10/04 05:28:19;;;;;;;2.00;1.55;;;16.10;73.60;;;;;;4995805;28;20030;-76
2023/10/04 05:30:46;;;;;;;2.10;1.60;;;16.10;73.60;;;;;;4995835;28;20022;-76
2023/10/04 05:33:19;;;;;;;2.25;1.55;;;16.00;73.50;;;;;;4995960;28;20034;-76
2023/10/04 05:35:47;;;;;;;2.83;1.80;;;16.00;73.60;;;;;;4995685;28;20031;-77
2023/10/04 05:38:14;;;;;;;3.55;1.65;;;16.00;73.50;;;;;;4995842;28;20022;-76
2023/10/04 05:40:45;;;;;;;2.97;1.70;;;16.00;73.60;;;;;;5011756;28;20061;-76
2023/10/04 05:43:14;;;;;;;1.98;1.52;;;16.00;73.60;;;;;;4995789;28;20034;-76
2023/10/04 05:45:42;;;;;;;2.40;1.48;;;16.00;73.60;;;;;;4994347;28;20180;-76
2023/10/04 05:48:09;;;;;;;2.25;1.60;;;16.00;73.60;;;;;;4995310;28;20058;-77
2023/10/04 05:50:35;;;;;;;4.47;2.10;;;16.00;73.60;;;;;;4995402;28;20030;-76
2023/10/04 05:53:06;;;;;;;2.80;1.63;;;16.00;73.60;;;;;;4994533;28;20039;-76
2023/10/04 05:55:34;;;;;;;2.67;1.60;;;16.00;73.60;;;;;;5011063;28;20173;-76
2023/10/04 05:58:00;;;;;;;3.40;1.90;;;16.00;73.60;;;;;;4978995;28;20039;-76
2023/10/04 06:00:37;;;;;;;3.25;2.08;;;15.90;73.60;;;;;;4994610;28;20111;-77
2023/10/04 06:03:10;;;;;;;2.95;1.90;;;15.90;73.60;;;;;;4994533;28;20072;-76
2023/10/04 06:05:40;;;;;;;3.10;1.80;;;15.90;73.60;;;;;;4994256;28;20034;-76
2023/10/04 06:08:19;;;;;;;3.17;1.90;;;15.90;73.60;;;;;;4995055;28;20471;-77
2023/10/04 06:10:46;;;;;;;2.38;1.73;;;15.90;73.60;;;;;;4994344;28;20140;-77
2023/10/04 06:13:12;;;;;;;3.58;1.80;;;15.90;73.60;;;;;;4993773;28;20057;-76
2023/10/04 06:15:43;;;;;;;3.05;1.60;;;15.90;73.60;;;;;;4993976;28;20034;-76
2023/10/04 06:18:11;;;;;;;2.55;1.55;;;15.90;74.30;;;;;;4994910;28;20026;-76
2023/10/04 06:20:38;;;;;;;2.72;1.77;;;15.80;73.60;;;;;;4993890;28;20022;-76
2023/10/04 06:23:07;;;;;;;2.95;1.90;;;15.90;73.60;;;;;;4994087;28;20476;-76
2023/10/04 06:25:38;;;;;;;3.42;1.75;;;15.80;73.60;;;;;;4993943;28;20041;-76
2023/10/04 06:28:04;;;;;;;3.70;2.03;;;15.80;73.60;;;;;;4977551;28;20026;-77
2023/10/04 06:30:32;;;;;;;2.42;1.67;;;15.80;73.60;;;;;;5010173;28;20044;-76
2023/10/04 06:33:01;;;;;;;2.95;1.83;;;15.80;73.60;;;;;;4994898;28;20038;-76
2023/10/04 06:35:28;;;;;;;3.53;2.15;;;15.80;73.60;;;;;;5010487;28;20042;-76
2023/10/04 06:37:59;;;;;;;3.35;1.85;;;15.80;73.60;;;;;;4962188;28;20452;-77
2023/10/04 06:40:27;;;;;;;3.38;1.85;;;15.80;73.70;;;;;;4994854;28;20026;-76
2023/10/04 06:42:55;;;;;;;3.47;1.77;;;15.80;73.70;;;;;;4993434;28;20030;-76
2023/10/04 06:45:26;;;;;;;3.20;1.98;;;15.80;73.70;;;;;;5009751;28;20042;-76
2023/10/04 06:47:54;;;;;;;2.70;1.83;;;15.80;73.70;;;;;;4994691;28;20125;-76
2023/10/04 06:50:22;;;;;;;2.80;1.60;;;15.80;73.70;;;;;;4994616;28;20066;-76
2023/10/04 06:52:50;;;;;;;3.22;1.77;;;15.80;73.70;;;;;;4993236;28;20034;-76
2023/10/04 06:55:18;;;;;;;2.85;1.60;;;15.80;73.70;;;;;;4994734;28;20046;-76
2023/10/04 06:57:45;;;;;;;2.85;1.75;;;15.80;73.70;;;;;;4994674;28;20030;-77
2023/10/04 07:00:18;;;;;;;3.10;1.98;;;15.80;73.70;;;;;;4993438;28;20045;-77
2023/10/04 07:02:58;;;;;;;5.38;2.22;;;15.80;73.70;;;;;;4993602;28;20034;-77
2023/10/04 07:05:36;;;;;;;2.70;1.55;;;15.80;73.80;;;;;;4978315;28;20073;-77
2023/10/04 07:08:04;;;;;;;3.53;2.20;;;15.80;73.80;;;;;;5009776;28;20117;-77
2023/10/04 07:10:30;;;;;;;2.35;1.67;;;15.80;73.70;;;;;;4992879;28;20088;-76
2023/10/04 07:12:58;;;;;;;3.75;1.92;;;15.80;73.70;;;;;;4996866;28;20140;-76
2023/10/04 07:15:27;;;;;;;3.05;2.05;;;15.80;73.70;;;;;;4995888;28;20029;-77
2023/10/04 07:17:53;;;;;;;5.57;2.15;;;15.80;73.70;;;;;;4995920;28;20026;-76
2023/10/04 07:20:19;;;;;;;3.83;2.00;;;15.80;73.80;;;;;;5013765;28;20245;-76
2023/10/04 07:22:47;;;;;;;4.78;2.15;;;15.80;73.80;;;;;;4964353;28;20389;-77
2023/10/04 07:25:14;;;;;;;3.20;2.00;;;15.80;73.80;;;;;;4979958;28;20034;-76
2023/10/04 07:27:45;;;;;;;3.92;2.20;;;15.80;73.80;;;;;;4995761;28;20454;-76
2023/10/04 07:30:13;;;;;;;2.45;1.80;;;15.80;73.90;;;;;;5013430;28;20029;-75
2023/10/04 07:32:43;;;;;;;4.15;2.15;;;15.80;73.80;;;;;;5012573;28;20116;-76
2023/10/04 07:35:16;;;;;;;2.03;1.60;;;15.80;73.80;;;;;;5012700;28;20052;-76
2023/10/04 07:37:43;;;;;;;3.60;1.80;;;15.80;73.80;;;;;;5012754;28;20426;-76
2023/10/04 07:40:10;;;;;;;3.45;1.90;;;15.80;73.80;;;;;;4979427;28;20042;-76
2023/10/04 07:42:38;;;;;;;3.72;1.85;;;15.80;73.80;;;;;;4996228;28;20133;-76
2023/10/04 07:45:04;;;;;;;3.30;2.00;;;15.80;73.80;;;;;;5012042;28;20037;-76
2023/10/04 07:47:31;;;;;;;2.90;1.60;;;15.80;73.80;;;;;;5013222;28;20030;-76
2023/10/04 07:49:57;;;;;;;3.67;1.85;;;15.80;73.80;;;;;;4996332;28;20034;-76
2023/10/04 07:52:22;;;;;;;3.92;2.17;;;15.80;73.70;;;;;;5012740;28;20038;-76
2023/10/04 07:54:50;;;;;;;3.58;1.80;;;15.90;73.80;;;;;;4996169;28;20151;-76
2023/10/04 07:57:15;;;;;;;3.13;1.85;;;15.80;73.80;;;;;;4980176;28;20029;-76
2023/10/04 07:59:43;;;;;;;3.05;1.90;;;15.90;73.80;;;;;;4995965;28;20030;-76
2023/10/04 08:02:11;;;;;;;3.05;2.00;;;15.90;73.90;;;;;;5012460;28;20479;-76
2023/10/04 08:04:36;;;;;;;2.92;1.88;;;15.90;73.80;;;;;;4996654;28;20033;-76
2023/10/04 08:07:02;;;;;;;4.72;2.00;;;15.90;73.80;;;;;;4995535;28;20046;-76
2023/10/04 08:09:28;;;;;;;2.90;1.70;;;15.90;73.80;;;;;;4996413;28;20037;-76
2023/10/04 08:11:54;;;;;;;3.08;2.05;;;15.90;73.80;;;;;;4979670;28;20502;-76
2023/10/04 08:14:21;;;;;;;2.13;1.70;;;15.90;73.80;;;;;;5012052;28;20058;-76
2023/10/04 08:16:49;;;;;;;3.10;1.85;;;15.90;73.80;;;;;;4995868;28;20041;-76
2023/10/04 08:19:15;;;;;;;2.97;1.85;;;16.00;73.90;;;;;;4980388;28;20034;-76
2023/10/04 08:21:41;;;;;;;2.83;2.08;;;16.00;73.90;;;;;;4979860;28;20148;-77
2023/10/04 08:24:07;;;;;;;3.67;2.20;;;16.00;73.90;;;;;;4999033;28;20471;-76
2023/10/04 08:26:33;;;;;;;3.30;1.77;;;16.00;73.90;;;;;;5015757;28;20037;-76
2023/10/04 08:28:59;;;;;;;3.60;1.90;;;16.00;73.90;;;;;;5016759;28;20395;-75
2023/10/04 08:31:25;;;;;;;3.95;1.98;;;16.00;73.90;;;;;;4999005;28;20471;-76
2023/10/04 08:33:51;;;;;;;3.20;2.08;;;16.00;73.90;;;;;;4999152;28;20041;-76
2023/10/04 08:36:17;;;;;;;3.08;1.80;;;16.10;73.90;;;;;;4982757;28;20029;-76
2023/10/04 08:38:45;;;;;;;4.95;1.90;;;16.10;73.90;;;;;;4983575;28;20026;-77
2023/10/04 08:41:12;;;;;;;3.22;1.65;;;16.10;74.00;;;;;;4999674;28;20033;-76
2023/10/04 08:43:38;;;;;;;3.22;1.75;;;16.10;73.90;;;;;;4983736;28;20033;-77
2023/10/04 08:46:07;;;;;;;4.00;1.85;;;16.10;73.90;;;;;;5016813;28;20128;-76
2023/10/04 08:48:34;;;;;;;2.85;1.75;;;16.20;73.90;;;;;;4982704;28;20085;-76
2023/10/04 08:51:16;;;;;;;3.10;1.80;;;16.20;73.90;;;;;;4983367;28;20032;-77
2023/10/04 08:54:08;;;;;;;4.75;2.10;;;16.20;73.90;;;;;;4999295;28;20364;-77
2023/10/04 08:56:44;;;;;;;2.20;1.60;;;16.30;74.00;;;;;;5014734;28;20037;-76
2023/10/04 08:59:11;;;;;;;2.58;1.42;;;16.30;73.90;;;;;;4998132;28;20030;-76
2023/10/04 09:01:39;;;;;;;2.85;1.80;;;16.30;73.80;;;;;;5014628;28;20403;-76
2023/10/04 09:04:06;;;;;;;3.42;1.85;;;16.30;73.80;;;;;;4998605;28;20041;-76
2023/10/04 09:06:32;;;;;;;3.50;1.90;;;16.40;73.90;;;;;;5015807;28;20038;-76
2023/10/04 09:08:58;;;;;;;2.80;1.67;;;16.40;73.90;;;;;;4998393;28;20034;-76
2023/10/04 09:11:24;;;;;;;2.63;1.80;;;16.40;73.80;;;;;;5016211;28;20068;-76
2023/10/04 09:13:52;;;;;;;3.75;2.13;;;16.50;73.80;;;;;;4998561;28;20050;-75
2023/10/04 09:16:29;;;;;;;3.67;1.88;;;16.50;73.90;;;;;;5014459;28;20037;-76
2023/10/04 09:19:08;;;;;;;3.40;1.83;;;16.50;73.80;;;;;;4999004;28;20053;-76
2023/10/04 09:21:38;;;;;;;2.88;1.75;;;16.60;73.90;;;;;;4998536;28;20022;-76
2023/10/04 09:24:09;;;;;;;4.05;2.08;;;16.60;73.80;;;;;;4982162;28;20041;-77
2023/10/04 09:26:36;;;;;;;3.70;2.03;;;16.70;73.80;;;;;;4998963;28;20026;-76
2023/10/04 09:29:04;;;;;;;3.78;1.80;;;16.70;73.80;;;;;;5014478;28;20033;-75
2023/10/04 09:31:30;;;;;;;4.90;2.00;;;16.70;73.80;;;;;;4997710;28;20463;-75
2023/10/04 09:34:13;;;;;;;2.97;1.75;;;16.70;74.30;;;;;;4964883;28;20029;-75
2023/10/04 09:36:40;;;;;;;4.25;2.10;;;16.80;73.80;;;;;;4982354;28;20030;-76
2023/10/04 09:39:08;;;;;;;3.15;1.75;;;16.90;73.70;;;;;;5014607;28;20080;-76
2023/10/04 09:41:47;;;;;;;2.35;1.67;;;16.80;73.60;;;;;;4998424;28;20100;-76
2023/10/04 09:44:25;;;;;;;3.78;1.67;;;16.90;73.70;;;;;;4997948;28;20033;-76
2023/10/04 09:46:54;;;;;;;2.80;1.83;;;16.90;73.60;;;;;;4998014;28;20443;-76
2023/10/04 09:49:22;;;;;;;4.10;2.00;;;17.00;73.50;;;;;;4998474;28;20030;-78
2023/10/04 09:51:50;;;;;;;3.28;1.90;;;17.00;73.50;;;;;;4997660;28;20054;-76
2023/10/04 09:54:16;;;;;;;2.72;1.83;;;17.10;73.50;;;;;;5014928;28;20053;-76
2023/10/04 09:56:44;;;;;;;3.80;2.03;;;17.10;73.40;;;;;;4965093;28;20029;-76
2023/10/04 09:59:11;;;;;;;4.43;2.00;;;17.20;73.40;;;;;;4997497;28;20032;-76
2023/10/04 10:01:40;;;;;;;3.67;2.15;;;17.20;73.40;;;;;;5014592;28;20034;-77
2023/10/04 10:04:16;;;;;;;3.75;1.98;;;17.20;73.30;;;;;;5014716;28;20545;-76
2023/10/04 10:07:15;;;;;;;2.90;1.83;;;17.30;73.30;;;;;;5014691;28;20509;-77
2023/10/04 10:10:11;;;;;;;2.97;1.58;;;17.30;73.30;;;;;;5014589;28;20080;-77
2023/10/04 10:12:36;;;;;;;;;;;17.40;73.30;;;;;;4982708;28;20049;-76
2023/10/04 10:15:07;;;;;;;1.75;1.35;;;17.40;72.90;;;;;;4981324;28;19914;-77
2023/10/04 10:17:35;;;;;;;2.35;1.63;;;17.40;72.90;;;;;;5013910;28;20022;-76
2023/10/04 10:20:02;;;;;;;6.05;2.15;;;17.50;73.00;;;;;;5013161;28;20044;-77
2023/10/04 10:22:28;;;;;;;3.33;1.95;;;17.50;73.00;;;;;;4997197;28;20034;-77
2023/10/04 10:24:56;;;;;;;4.05;1.60;;;17.50;73.00;;;;;;4996959;28;20034;-77
2023/10/04 10:27:28;;;;;;;2.22;1.67;;;17.60;73.10;;;;;;5014355;28;20061;-77
2023/10/04 10:29:59;;;;;;;4.85;1.90;;;17.60;73.00;;;;;;5013262;28;20387;-76
2023/10/04 10:32:25;;;;;;;3.85;1.92;;;17.70;73.00;;;;;;4996678;28;20108;-77
2023/10/04 10:35:04;;;;;;;4.18;2.10;;;17.70;72.90;;;;;;5014172;28;20655;-76
2023/10/04 10:37:38;;;;;;;3.38;1.83;;;17.70;73.00;;;;;;4997491;28;20104;-76
2023/10/04 10:40:24;;;;;;;3.15;1.67;;;17.80;72.90;;;;;;4997240;28;20053;-77
2023/10/04 10:43:07;;;;;;;2.67;1.60;;;17.80;72.90;;;;;;4998519;28;20533;-77
2023/10/04 10:45:33;;;;;;;3.67;1.88;;;17.90;73.00;;;;;;4996791;28;20463;-77
2023/10/04 10:48:01;;;;;;;2.72;1.65;;;17.90;72.80;;;;;;4996944;28;20084;-77
2023/10/04 10:50:38;;;;;;;3.72;1.98;;;17.90;72.80;;;;;;5014702;28;20034;-77
2023/10/04 10:53:11;;;;;;;3.90;1.83;;;18.00;72.90;;;;;;5014217;28;20033;-77
2023/10/04 10:55:40;;;;;;;3.00;1.80;;;18.00;72.80;;;;;;5012972;28;20521;-76
2023/10/04 10:58:07;;;;;;;3.22;1.90;;;18.10;72.80;;;;;;4980611;28;20136;-77
2023/10/04 11:00:36;;;;;;;3.47;1.95;;;18.10;72.80;;;;;;4996456;28;20038;-76
2023/10/04 11:03:05;;;;;;;4.45;1.80;;;18.10;72.70;;;;;;5013324;28;20112;-76
2023/10/04 11:05:31;;;;;;;5.05;2.10;;;18.20;72.80;;;;;;5013740;28;20038;-76
2023/10/04 11:07:57;;;;;;;3.78;1.85;;;18.20;72.70;;;;;;4980434;28;20037;-77
2023/10/04 11:10:25;;;;;;;3.28;1.83;;;18.20;72.60;;;;;;4980100;28;20088;-77
2023/10/04 11:12:55;;;;;;;3.15;1.80;;;18.30;72.60;;;;;;4996095;28;20146;-77
2023/10/04 11:15:26;;;;;;;2.90;1.70;;;18.30;72.60;;;;;;5012594;28;20052;-77
2023/10/04 11:17:53;;;;;;;2.28;1.52;;;18.40;72.60;;;;;;4997695;28;20447;-77
2023/10/04 11:20:20;;;;;;;3.47;2.00;;;18.40;72.60;;;;;;4996317;28;20144;-77
2023/10/04 11:22:49;;;;;;;3.65;1.80;;;18.40;72.50;;;;;;4996242;28;20041;-77
2023/10/04 11:25:16;;;;;;;4.43;1.80;;;18.50;72.50;;;;;;5012465;28;20056;-76
2023/10/04 11:27:44;;;;;;;3.95;2.13;;;18.50;72.50;;;;;;5012394;28;20038;-76
2023/10/04 11:30:13;;;;;;;2.83;1.55;;;18.50;72.40;;;;;;4980414;28;20121;-76
2023/10/04 11:32:45;;;;;;;4.97;2.70;;;18.60;72.40;;;;;;4995967;28;20034;-76
2023/10/04 11:35:11;;;;;;;3.80;2.15;;;18.60;72.40;;;;;;4996349;28;20029;-77
2023/10/04 11:37:45;;;;;;;3.78;2.00;;;18.60;72.30;;;;;;4996355;28;20064;-77
2023/10/04 11:40:12;;;;;;;3.53;1.90;;;18.70;72.30;;;;;;5012308;28;20034;-76
2023/10/04 11:42:41;;;;;;;3.55;2.00;;;18.70;72.20;;;;;;4995766;28;20038;-78
2023/10/04 11:45:26;;;;;;;3.72;2.08;;;18.70;72.20;;;;;;5013783;28;20029;-77
2023/10/04 11:48:08;;;;;;;4.05;1.92;;;18.70;72.10;;;;;;5013010;28;20045;-76
2023/10/04 11:50:51;;;;;;;3.55;1.75;;;18.80;72.10;;;;;;5013573;28;20072;-77
2023/10/04 11:53:34;;;;;;;5.30;2.00;;;18.80;72.00;;;;;;4996090;28;20061;-77
2023/10/04 11:56:07;;;;;;;3.10;1.90;;;18.90;72.00;;;;;;4996625;28;20420;-76
2023/10/04 11:58:53;;;;;;;3.63;2.17;;;18.90;71.90;;;;;;5015874;28;20494;-77
2023/10/04 12:01:22;;;;;;;4.10;2.08;;;18.90;71.90;;;;;;4983399;28;20061;-76
2023/10/04 12:03:50;;;;;;;3.78;2.00;;;19.00;71.90;;;;;;5018028;28;20033;-76
2023/10/04 12:06:25;;;;;;;2.63;1.70;;;19.00;71.80;;;;;;4999729;28;20034;-76
2023/10/04 12:08:54;;;;;;;2.83;1.90;;;19.10;71.80;;;;;;5016953;28;20468;-76
2023/10/04 12:11:25;;;;;;;3.47;2.08;;;19.10;71.70;;;;;;4983647;28;20045;-77
2023/10/04 12:13:51;;;;;;;2.90;2.00;;;19.10;71.70;;;;;;4984250;28;20510;-82
2023/10/04 12:16:18;;;;;;;3.65;2.20;;;19.10;71.60;;;;;;5015782;28;20034;-76
2023/10/04 12:18:44;;;;;;;3.83;2.13;;;19.20;71.60;;;;;;4999111;28;20045;-76
2023/10/04 12:21:11;;;;;;;3.97;2.13;;;19.20;71.50;;;;;;4999240;28;20038;-77
2023/10/04 12:23:38;;;;;;;3.30;2.00;;;19.20;71.40;;;;;;5016755;28;20042;-77
2023/10/04 12:26:04;;;;;;;2.83;1.80;;;19.30;71.40;;;;;;4999905;28;20116;-77
2023/10/04 12:28:30;;;;;;;3.17;1.85;;;19.30;71.40;;;;;;5015771;28;20126;-77
2023/10/04 12:31:01;;;;;;;6.88;2.50;;;19.30;71.30;;;;;;4982677;28;20030;-77
2023/10/04 12:33:29;;;;;;;3.78;2.28;;;19.30;71.20;;;;;;4984261;28;20112;-77
2023/10/04 12:35:56;;;;;;;4.38;2.20;;;19.40;71.30;;;;;;4967043;28;20545;-77
2023/10/04 12:38:25;;;;;;;3.33;1.95;;;19.40;71.20;;;;;;5016414;28;20467;-77
2023/10/04 12:40:52;;;;;;;3.30;1.95;;;19.40;71.20;;;;;;4983108;28;20382;-77
2023/10/04 12:43:18;;;;;;;3.50;2.00;;;19.50;71.20;;;;;;5016335;28;20041;-77
2023/10/04 12:45:47;;;;;;;4.25;2.20;;;19.50;71.10;;;;;;4998838;28;20360;-76
2023/10/04 12:48:16;;;;;;;3.25;1.88;;;19.50;71.10;;;;;;5016589;28;20030;-76
2023/10/04 12:50:46;;;;;;;3.80;2.17;;;19.50;71.00;;;;;;4999143;28;20042;-77
2023/10/04 12:53:14;;;;;;;4.85;2.25;;;19.60;71.10;;;;;;4999403;28;20426;-76
2023/10/04 12:55:41;;;;;;;3.80;1.92;;;19.60;71.00;;;;;;4982885;28;20045;-74
2023/10/04 12:58:06;;;;;;;3.50;2.20;;;19.60;70.90;;;;;;4998758;28;20022;-76
2023/10/04 13:00:33;;;;;;;3.92;2.20;;;19.70;70.90;;;;;;5015197;28;20057;-75
2023/10/04 13:02:59;;;;;;;3.17;2.00;;;19.70;70.90;;;;;;5014656;28;20471;-76
2023/10/04 13:05:26;;;;;;;4.05;2.20;;;19.70;70.80;;;;;;5014772;28;20026;-76